createdAt,value
2023-03-26T00:02:13.464Z,8.20
2023-03-26T00:04:51.570Z,8.20
2023-03-26T00:07:28.502Z,8.20
2023-03-26T00:10:08.865Z,8.20
2023-03-26T00:12:45.607Z,8.20
2023-03-26T00:15:21.301Z,8.10
2023-03-26T00:17:56.772Z,8.10
2023-03-26T00:20:33.073Z,8.20
2023-03-26T00:23:09.243Z,8.10
2023-03-26T00:25:51.367Z,8.10
2023-03-26T00:28:26.932Z,8.10
2023-03-26T00:31:02.811Z,8.10
2023-03-26T00:33:38.988Z,8.10
2023-03-26T00:36:17.301Z,8.10
2023-03-26T00:38:54.629Z,8.10
2023-03-26T00:41:32.804Z,8.10
2023-03-26T00:44:08.013Z,8.20
2023-03-26T00:46:43.706Z,8.20
2023-03-26T00:49:19.122Z,8.20
2023-03-26T00:51:56.773Z,8.20
2023-03-26T00:54:32.249Z,8.20
2023-03-26T00:57:10.797Z,8.20
2023-03-26T00:59:45.741Z,8.30
2023-03-26T01:02:21.973Z,8.30
2023-03-26T01:05:03.600Z,8.30
2023-03-26T01:07:39.741Z,8.30
2023-03-26T01:10:15.554Z,8.30
2023-03-26T01:12:54.226Z,8.40
2023-03-26T01:15:30.206Z,8.30
2023-03-26T01:18:05.795Z,8.30
2023-03-26T01:20:47.216Z,8.40
2023-03-26T01:23:24.720Z,8.40
2023-03-26T01:26:05.305Z,8.40
2023-03-26T01:28:41.567Z,8.30
2023-03-26T01:31:18.632Z,8.30
2023-03-26T01:33:56.460Z,8.30
2023-03-26T01:36:35.410Z,8.30
2023-03-26T01:39:11.909Z,8.30
2023-03-26T01:41:50.421Z,8.20
2023-03-26T01:44:28.098Z,8.20
2023-03-26T01:47:04.968Z,8.20
2023-03-26T01:49:40.727Z,8.10
2023-03-26T01:52:18.350Z,8.10
2023-03-26T01:54:52.770Z,8.00
2023-03-26T01:57:36.782Z,8.00
2023-03-26T02:00:18.520Z,8.00
2023-03-26T02:03:26.689Z,8.00
2023-03-26T02:06:03.867Z,8.00
2023-03-26T02:08:41.647Z,8.00
2023-03-26T02:11:20.019Z,8.00
2023-03-26T02:13:58.188Z,8.10
2023-03-26T02:16:35.460Z,8.10
2023-03-26T02:19:16.066Z,8.10
2023-03-26T02:21:53.535Z,8.10
2023-03-26T02:24:29.065Z,8.10
2023-03-26T02:27:08.164Z,8.10
2023-03-26T02:29:48.013Z,8.10
2023-03-26T02:32:26.234Z,8.10
2023-03-26T02:35:01.864Z,8.00
2023-03-26T02:37:37.533Z,8.00
2023-03-26T02:40:23.720Z,8.00
2023-03-26T02:43:01.054Z,8.00
2023-03-26T02:45:47.163Z,8.00
2023-03-26T02:48:42.152Z,8.10
2023-03-26T02:51:23.703Z,8.10
2023-03-26T02:54:08.442Z,8.10
2023-03-26T02:56:43.793Z,8.10
2023-03-26T02:59:33.396Z,8.10
2023-03-26T03:02:38.634Z,8.10
2023-03-26T03:05:33.093Z,8.10
2023-03-26T03:08:27.076Z,8.20
2023-03-26T03:11:22.402Z,8.20
2023-03-26T03:14:00.918Z,8.20
2023-03-26T03:16:38.901Z,8.20
2023-03-26T03:19:21.629Z,8.20
2023-03-26T03:22:00.379Z,8.20
2023-03-26T03:24:36.332Z,8.20
2023-03-26T03:27:13.668Z,8.10
2023-03-26T03:29:56.171Z,8.10
2023-03-26T03:32:52.025Z,8.10
2023-03-26T03:35:33.898Z,8.10
2023-03-26T03:38:11.110Z,8.10
2023-03-26T03:40:56.588Z,8.10
2023-03-26T03:43:39.852Z,8.10
2023-03-26T03:46:22.020Z,8.10
2023-03-26T03:48:58.866Z,8.10
2023-03-26T03:51:42.881Z,8.10
2023-03-26T03:54:29.611Z,8.10
2023-03-26T03:57:19.077Z,8.10
2023-03-26T04:00:06.865Z,8.10
2023-03-26T04:02:50.920Z,8.10
2023-03-26T04:05:26.734Z,8.20
2023-03-26T04:08:06.306Z,8.20
2023-03-26T04:10:51.194Z,8.20
2023-03-26T04:13:45.747Z,8.20
2023-03-26T04:16:42.803Z,8.20
2023-03-26T04:19:18.254Z,8.30
2023-03-26T04:21:55.756Z,8.30
2023-03-26T04:24:38.920Z,8.30
2023-03-26T04:27:15.093Z,8.30
2023-03-26T04:29:50.185Z,8.30
2023-03-26T04:32:30.667Z,8.30
2023-03-26T04:35:07.117Z,8.30
2023-03-26T04:37:40.208Z,8.30
2023-03-26T04:40:24.586Z,8.30
2023-03-26T04:43:20.809Z,8.30
2023-03-26T04:46:22.074Z,8.30
2023-03-26T04:49:03.168Z,8.30
2023-03-26T04:51:42.256Z,8.30
2023-03-26T04:54:40.867Z,8.30
2023-03-26T04:57:23.822Z,8.30
2023-03-26T05:00:16.373Z,8.30
2023-03-26T05:02:58.097Z,8.30
2023-03-26T05:05:35.024Z,8.30
2023-03-26T05:08:12.417Z,8.30
2023-03-26T05:10:48.695Z,8.30
2023-03-26T05:13:34.407Z,8.30
2023-03-26T05:16:15.632Z,8.30
2023-03-26T05:18:59.511Z,8.30
2023-03-26T05:21:45.318Z,8.30
2023-03-26T05:24:21.829Z,8.30
2023-03-26T05:26:58.657Z,8.30
2023-03-26T05:29:33.158Z,8.30
2023-03-26T05:32:10.954Z,8.30
2023-03-26T05:34:47.745Z,8.30
2023-03-26T05:37:25.164Z,8.30
2023-03-26T05:40:26.322Z,8.40
2023-03-26T05:43:11.113Z,8.40
2023-03-26T05:46:07.347Z,8.40
2023-03-26T05:48:46.105Z,8.50
2023-03-26T05:51:20.969Z,8.50
2023-03-26T05:54:05.082Z,8.60
2023-03-26T05:57:05.035Z,8.60
2023-03-26T05:59:59.209Z,8.60
2023-03-26T06:02:56.488Z,8.60
2023-03-26T06:05:55.378Z,8.70
2023-03-26T06:09:02.293Z,8.70
2023-03-26T06:11:40.211Z,8.70
2023-03-26T06:14:16.534Z,8.70
2023-03-26T06:17:14.676Z,8.70
2023-03-26T06:20:10.421Z,8.80
2023-03-26T06:22:51.677Z,8.80
2023-03-26T06:25:41.118Z,8.80
2023-03-26T06:28:37.211Z,8.90
2023-03-26T06:31:22.563Z,8.90
2023-03-26T06:34:20.756Z,8.90
2023-03-26T06:36:55.922Z,8.90
2023-03-26T06:39:34.434Z,8.90
2023-03-26T06:43:10.009Z,9.00
2023-03-26T06:45:51.252Z,9.00
2023-03-26T06:48:53.997Z,9.00
2023-03-26T06:51:58.193Z,9.00
2023-03-26T06:55:18.338Z,9.10
2023-03-26T06:58:15.269Z,9.10
2023-03-26T07:00:56.818Z,9.20
2023-03-26T07:03:54.372Z,9.20
2023-03-26T07:06:48.767Z,9.30
2023-03-26T07:09:43.654Z,9.40
2023-03-26T07:12:58.401Z,9.50
2023-03-26T07:15:56.515Z,9.70
2023-03-26T07:18:51.641Z,9.70
2023-03-26T07:21:33.859Z,10.00
2023-03-26T07:24:15.394Z,10.30
2023-03-26T07:27:07.610Z,10.50
2023-03-26T07:29:53.327Z,10.70
2023-03-26T07:32:53.383Z,10.80
2023-03-26T07:35:55.687Z,10.80
2023-03-26T07:39:04.404Z,10.80
2023-03-26T07:41:58.075Z,10.90
2023-03-26T07:44:58.614Z,10.90
2023-03-26T07:47:43.321Z,10.80
2023-03-26T07:50:26.468Z,10.90
2023-03-26T07:53:38.031Z,10.90
2023-03-26T07:56:39.205Z,11.00
2023-03-26T07:59:30.290Z,11.00
2023-03-26T08:02:49.950Z,11.00
2023-03-26T08:05:48.146Z,11.00
2023-03-26T08:08:41.902Z,11.00
2023-03-26T08:11:49.541Z,11.00
2023-03-26T08:14:37.530Z,11.10
2023-03-26T08:17:18.853Z,11.00
2023-03-26T08:20:12.780Z,11.00
2023-03-26T08:22:51.278Z,11.00
2023-03-26T08:25:34.170Z,11.00
2023-03-26T08:28:33.560Z,11.00
2023-03-26T08:31:12.174Z,11.10
2023-03-26T08:33:49.404Z,11.10
2023-03-26T08:36:30.105Z,11.30
2023-03-26T08:39:06.946Z,11.70
2023-03-26T08:42:20.132Z,12.20
2023-03-26T08:45:09.307Z,12.30
2023-03-26T08:47:55.908Z,12.40
2023-03-26T08:50:53.681Z,12.30
2023-03-26T08:53:44.386Z,12.30
2023-03-26T08:56:28.333Z,12.40
2023-03-26T08:59:38.866Z,12.60
2023-03-26T09:02:57.648Z,12.60
2023-03-26T09:06:11.514Z,12.20
2023-03-26T09:09:22.367Z,12.00
2023-03-26T09:12:31.797Z,11.60
2023-03-26T09:15:37.569Z,11.30
2023-03-26T09:18:43.109Z,11.10
2023-03-26T09:21:49.579Z,10.90
2023-03-26T09:24:53.520Z,10.60
2023-03-26T09:27:46.517Z,10.30
2023-03-26T09:30:47.503Z,9.90
2023-03-26T09:33:43.239Z,9.60
2023-03-26T09:36:16.481Z,9.50
2023-03-26T09:39:02.423Z,9.40
2023-03-26T09:41:46.144Z,9.40
2023-03-26T09:44:21.005Z,9.60
2023-03-26T09:47:23.339Z,9.80
2023-03-26T09:50:03.202Z,10.10
2023-03-26T09:52:48.408Z,10.40
2023-03-26T09:55:24.016Z,10.50
2023-03-26T09:58:42.291Z,10.50
2023-03-26T10:01:22.816Z,10.60
2023-03-26T10:04:25.830Z,10.80
2023-03-26T10:07:05.370Z,11.00
2023-03-26T10:09:56.385Z,11.20
2023-03-26T10:12:35.795Z,11.30
2023-03-26T10:15:40.237Z,11.30
2023-03-26T10:18:27.638Z,11.40
2023-03-26T10:21:14.609Z,11.60
2023-03-26T10:24:06.674Z,11.70
2023-03-26T10:27:09.677Z,11.80
2023-03-26T10:30:17.440Z,11.80
2023-03-26T10:32:59.136Z,11.90
2023-03-26T10:35:44.801Z,12.30
2023-03-26T10:38:29.481Z,12.70
2023-03-26T10:41:09.947Z,13.10
2023-03-26T10:44:24.552Z,13.30
2023-03-26T10:47:20.166Z,13.20
2023-03-26T10:50:23.692Z,13.10
2023-03-26T10:53:05.466Z,12.80
2023-03-26T10:55:51.910Z,12.40
2023-03-26T10:58:49.752Z,12.10
2023-03-26T11:01:38.624Z,11.80
2023-03-26T11:04:27.723Z,11.50
2023-03-26T11:07:10.714Z,11.40
2023-03-26T11:09:50.152Z,11.30
2023-03-26T11:12:41.365Z,11.50
2023-03-26T11:15:28.443Z,11.80
2023-03-26T11:18:14.508Z,11.90
2023-03-26T11:20:55.603Z,12.00
2023-03-26T11:24:04.735Z,12.10
2023-03-26T11:26:49.750Z,12.10
2023-03-26T11:29:32.690Z,12.40
2023-03-26T11:32:17.107Z,12.60
2023-03-26T11:35:00.673Z,12.70
2023-03-26T11:37:40.860Z,12.90
2023-03-26T11:40:30.013Z,12.90
2023-03-26T11:43:13.064Z,12.80
2023-03-26T11:45:48.421Z,12.70
2023-03-26T11:48:28.484Z,12.70
2023-03-26T11:51:06.801Z,12.60
2023-03-26T11:53:49.642Z,12.60
2023-03-26T11:56:32.427Z,12.50
2023-03-26T11:59:10.851Z,12.30
2023-03-26T12:01:51.180Z,12.30
2023-03-26T12:04:41.485Z,12.20
2023-03-26T12:07:21.805Z,12.20
2023-03-26T12:10:17.711Z,12.20
2023-03-26T12:12:55.743Z,12.20
2023-03-26T12:15:34.207Z,12.20
2023-03-26T12:18:30.413Z,12.20
2023-03-26T12:21:14.150Z,12.20
2023-03-26T12:24:00.678Z,12.20
2023-03-26T12:26:43.714Z,12.20
2023-03-26T12:29:22.698Z,12.20
2023-03-26T12:32:04.037Z,12.20
2023-03-26T12:34:42.141Z,12.30
2023-03-26T12:37:43.963Z,12.40
2023-03-26T12:40:37.437Z,12.50
2023-03-26T12:44:52.932Z,12.50
2023-03-26T12:47:57.023Z,12.60
2023-03-26T12:49:28.009Z,12.60
2023-03-26T12:52:12.304Z,12.70
2023-03-26T12:54:57.386Z,12.70
2023-03-26T12:57:43.013Z,12.70
2023-03-26T13:00:21.993Z,12.70
2023-03-26T13:03:21.099Z,12.70
2023-03-26T13:06:08.917Z,12.70
2023-03-26T13:09:25.936Z,12.80
2023-03-26T13:12:12.953Z,12.90
2023-03-26T13:14:47.431Z,12.90
2023-03-26T13:17:31.708Z,13.00
2023-03-26T13:20:13.483Z,13.00
2023-03-26T13:22:57.495Z,13.10
2023-03-26T13:25:40.144Z,13.00
2023-03-26T13:28:26.534Z,13.10
2023-03-26T13:31:06.082Z,13.00
2023-03-26T13:33:53.293Z,13.10
2023-03-26T13:36:33.897Z,13.20
2023-03-26T13:39:22.169Z,13.30
2023-03-26T13:42:12.056Z,13.40
2023-03-26T13:45:05.057Z,13.50
2023-03-26T13:47:45.981Z,13.60
2023-03-26T13:50:25.400Z,13.60
2023-03-26T13:53:03.725Z,13.60
2023-03-26T13:55:43.468Z,13.60
2023-03-26T13:58:19.721Z,13.60
2023-03-26T14:01:02.509Z,13.50
2023-03-26T14:03:45.891Z,13.60
2023-03-26T14:06:35.497Z,13.60
2023-03-26T14:09:14.235Z,13.60
2023-03-26T14:11:55.692Z,13.60
2023-03-26T14:14:38.382Z,13.60
2023-03-26T14:17:19.368Z,13.50
2023-03-26T14:20:11.720Z,13.50
2023-03-26T14:22:53.078Z,13.40
2023-03-26T14:25:32.512Z,13.40
2023-03-26T14:28:18.198Z,13.40
2023-03-26T14:31:04.331Z,13.40
2023-03-26T14:34:13.295Z,13.30
2023-03-26T14:37:12.571Z,13.30
2023-03-26T14:40:20.668Z,13.30
2023-03-26T14:42:59.904Z,13.20
2023-03-26T14:45:46.543Z,13.30
2023-03-26T14:49:01.926Z,13.30
2023-03-26T14:51:32.832Z,13.20
2023-03-26T14:54:12.418Z,13.20
2023-03-26T14:56:56.589Z,13.20
2023-03-26T15:00:16.056Z,13.20
2023-03-26T15:03:40.603Z,13.10
2023-03-26T15:06:15.769Z,13.10
2023-03-26T15:09:21.720Z,13.10
2023-03-26T15:12:12.158Z,13.10
2023-03-26T15:15:05.563Z,13.10
2023-03-26T15:18:06.730Z,13.00
2023-03-26T15:20:57.121Z,13.00
2023-03-26T15:23:53.432Z,12.90
2023-03-26T15:26:29.369Z,12.80
2023-03-26T15:29:51.234Z,12.80
2023-03-26T15:32:39.472Z,12.80
2023-03-26T15:35:37.084Z,12.80
2023-03-26T15:38:34.994Z,12.80
2023-03-26T15:41:18.216Z,12.70
2023-03-26T15:44:57.865Z,12.70
2023-03-26T15:47:46.308Z,12.70
2023-03-26T15:50:35.227Z,12.70
2023-03-26T15:53:19.130Z,12.60
2023-03-26T15:56:04.907Z,12.60
2023-03-26T15:58:45.499Z,12.50
2023-03-26T16:01:26.398Z,12.30
2023-03-26T16:04:10.891Z,12.00
2023-03-26T16:06:54.580Z,11.70
2023-03-26T16:09:40.039Z,11.50
2023-03-26T16:12:31.353Z,11.30
2023-03-26T16:15:25.303Z,11.10
2023-03-26T16:18:33.707Z,11.00
2023-03-26T16:21:40.670Z,10.80
2023-03-26T16:24:30.952Z,10.70
2023-03-26T16:27:34.647Z,10.60
2023-03-26T16:30:20.872Z,10.60
2023-03-26T16:33:02.077Z,10.60
2023-03-26T16:35:47.271Z,10.60
2023-03-26T16:38:29.046Z,10.50
2023-03-26T16:41:09.544Z,10.40
2023-03-26T16:43:57.590Z,10.40
2023-03-26T16:46:43.329Z,10.40
2023-03-26T16:49:26.472Z,10.40
2023-03-26T16:52:19.318Z,10.40
2023-03-26T16:55:01.622Z,10.30
2023-03-26T16:57:45.180Z,10.30
2023-03-26T17:00:35.745Z,10.30
2023-03-26T17:03:21.629Z,10.30
2023-03-26T17:06:42.654Z,10.20
2023-03-26T17:09:19.218Z,10.20
2023-03-26T17:12:03.252Z,10.10
2023-03-26T17:14:49.378Z,10.10
2023-03-26T17:17:46.640Z,10.10
2023-03-26T17:20:33.988Z,10.00
2023-03-26T17:23:30.168Z,10.00
2023-03-26T17:26:17.085Z,10.00
2023-03-26T17:29:25.265Z,9.90
2023-03-26T17:32:09.974Z,9.90
2023-03-26T17:35:03.144Z,9.80
2023-03-26T17:37:48.714Z,9.80
2023-03-26T17:40:52.134Z,9.70
2023-03-26T17:43:44.578Z,9.70
2023-03-26T17:46:45.431Z,9.60
2023-03-26T17:49:27.677Z,9.60
2023-03-26T17:52:06.527Z,9.60
2023-03-26T17:54:45.966Z,9.70
2023-03-26T17:57:30.104Z,9.60
2023-03-26T18:00:08.844Z,9.60
2023-03-26T18:02:54.804Z,9.60
2023-03-26T18:05:33.461Z,9.70
2023-03-26T18:08:38.014Z,9.70
2023-03-26T18:11:42.940Z,9.70
2023-03-26T18:14:45.773Z,9.60
2023-03-26T18:17:24.194Z,9.60
2023-03-26T18:20:10.662Z,9.60
2023-03-26T18:22:47.539Z,9.60
2023-03-26T18:25:29.006Z,9.50
2023-03-26T18:28:11.292Z,9.50
2023-03-26T18:30:52.504Z,9.50
2023-03-26T18:33:31.911Z,9.50
2023-03-26T18:36:14.793Z,9.50
2023-03-26T18:38:53.443Z,9.50
2023-03-26T18:41:38.188Z,9.50
2023-03-26T18:44:18.999Z,9.50
2023-03-26T18:46:56.062Z,9.40
2023-03-26T18:49:32.600Z,9.40
2023-03-26T18:52:17.701Z,9.40
2023-03-26T18:55:00.300Z,9.40
2023-03-26T18:57:42.952Z,9.40
2023-03-26T19:00:19.408Z,9.40
2023-03-26T19:02:58.777Z,9.40
2023-03-26T19:05:40.293Z,9.40
2023-03-26T19:08:31.013Z,9.40
2023-03-26T19:11:14.770Z,9.40
2023-03-26T19:14:06.179Z,9.40
2023-03-26T19:16:46.647Z,9.30
2023-03-26T19:19:28.130Z,9.30
2023-03-26T19:22:08.565Z,9.30
2023-03-26T19:24:49.349Z,9.30
2023-03-26T19:27:27.089Z,9.30
2023-03-26T19:30:03.606Z,9.20
2023-03-26T19:32:39.670Z,9.30
2023-03-26T19:35:23.485Z,9.20
2023-03-26T19:37:58.476Z,9.20
2023-03-26T19:40:37.731Z,9.20
2023-03-26T19:43:16.360Z,9.10
2023-03-26T19:45:59.640Z,9.20
2023-03-26T19:48:49.668Z,9.20
2023-03-26T19:51:26.915Z,9.20
2023-03-26T19:54:03.849Z,9.20
2023-03-26T19:56:44.282Z,9.10
2023-03-26T19:59:22.138Z,9.20
2023-03-26T20:01:57.871Z,9.10
2023-03-26T20:04:37.187Z,9.10
2023-03-26T20:07:39.778Z,9.10
2023-03-26T20:10:18.602Z,9.10
2023-03-26T20:13:01.117Z,9.10
2023-03-26T20:15:37.539Z,9.10
2023-03-26T20:18:14.641Z,9.10
2023-03-26T20:20:50.656Z,9.10
2023-03-26T20:23:28.248Z,9.10
2023-03-26T20:26:04.359Z,9.10
2023-03-26T20:28:48.647Z,9.10
2023-03-26T20:31:30.908Z,9.10
2023-03-26T20:34:08.108Z,9.10
2023-03-26T20:36:46.224Z,9.00
2023-03-26T20:39:23.250Z,9.00
2023-03-26T20:41:58.837Z,9.00
2023-03-26T20:44:39.447Z,9.00
2023-03-26T20:47:17.114Z,9.00
2023-03-26T20:49:56.852Z,9.00
2023-03-26T20:52:36.774Z,9.00
2023-03-26T20:55:16.400Z,9.00
2023-03-26T20:57:53.726Z,9.00
2023-03-26T21:00:38.186Z,8.90
2023-03-26T21:03:18.979Z,8.90
2023-03-26T21:05:57.541Z,8.90
2023-03-26T21:08:40.678Z,8.90
2023-03-26T21:11:26.458Z,8.80
2023-03-26T21:14:08.232Z,8.80
2023-03-26T21:16:47.248Z,8.80
2023-03-26T21:19:27.817Z,8.80
2023-03-26T21:22:12.818Z,8.80
2023-03-26T21:25:02.665Z,8.70
2023-03-26T21:27:46.753Z,8.70
2023-03-26T21:30:24.615Z,8.60
2023-03-26T21:33:06.426Z,8.60
2023-03-26T21:35:45.651Z,8.60
2023-03-26T21:38:21.718Z,8.60
2023-03-26T21:40:58.782Z,8.50
2023-03-26T21:43:35.276Z,8.50
2023-03-26T21:46:11.759Z,8.50
2023-03-26T21:48:51.243Z,8.50
2023-03-26T21:51:27.181Z,8.50
2023-03-26T21:54:02.764Z,8.50
2023-03-26T21:56:45.304Z,8.50
2023-03-26T21:59:19.677Z,8.40
2023-03-26T22:01:57.820Z,8.50
2023-03-26T22:04:38.721Z,8.50
2023-03-26T22:07:16.325Z,8.50
2023-03-26T22:09:53.381Z,8.50
2023-03-26T22:12:28.554Z,8.50
2023-03-26T22:15:05.080Z,8.50
2023-03-26T22:17:42.001Z,8.50
2023-03-26T22:20:23.644Z,8.40
2023-03-26T22:22:59.523Z,8.40
2023-03-26T22:25:35.479Z,8.40
2023-03-26T22:28:09.923Z,8.40
2023-03-26T22:30:45.268Z,8.40
2023-03-26T22:33:21.277Z,8.40
2023-03-26T22:35:59.846Z,8.50
2023-03-26T22:38:35.826Z,8.40
2023-03-26T22:41:13.216Z,8.40
2023-03-26T22:43:52.251Z,8.40
2023-03-26T22:46:28.063Z,8.40
2023-03-26T22:49:04.669Z,8.40
2023-03-26T22:51:42.965Z,8.40
2023-03-26T22:54:18.961Z,8.40
2023-03-26T22:56:55.755Z,8.30
2023-03-26T22:59:32.666Z,8.30
2023-03-26T23:02:07.870Z,8.30
2023-03-26T23:04:43.418Z,8.20
2023-03-26T23:07:21.922Z,8.20
2023-03-26T23:09:58.265Z,8.20
2023-03-26T23:12:33.963Z,8.10
2023-03-26T23:15:11.361Z,8.10
2023-03-26T23:17:54.416Z,8.10
2023-03-26T23:20:37.951Z,8.10
2023-03-26T23:23:17.970Z,8.10
2023-03-26T23:25:55.042Z,8.10
2023-03-26T23:28:31.901Z,8.00
2023-03-26T23:31:08.509Z,8.00
2023-03-26T23:33:46.784Z,8.00
2023-03-26T23:36:24.075Z,7.90
2023-03-26T23:39:02.290Z,7.90
2023-03-26T23:41:38.008Z,7.90
2023-03-26T23:44:14.884Z,7.90
2023-03-26T23:46:58.268Z,7.90
2023-03-26T23:49:33.555Z,7.90
2023-03-26T23:52:10.294Z,7.90
2023-03-26T23:54:48.233Z,7.90
2023-03-26T23:57:23.723Z,7.90
2023-03-26T23:59:58.655Z,7.90
